createdAt,value
2019-01-14T00:01:32.097Z,99283.00
2019-01-14T00:04:21.592Z,99300.00
2019-01-14T00:07:11.047Z,99305.00
2019-01-14T00:10:00.538Z,99256.00
2019-01-14T00:12:31.335Z,99297.00
2019-01-14T00:15:21.169Z,99313.00
2019-01-14T00:21:07.178Z,99330.00
2019-01-14T00:23:56.645Z,99327.00
2019-01-14T00:26:47.020Z,99304.00
2019-01-14T00:29:36.468Z,99318.00
2019-01-14T00:32:25.956Z,99357.00
2019-01-14T00:35:15.413Z,99379.00
2019-01-14T00:38:05.521Z,99353.00
2019-01-14T00:40:54.823Z,99357.00
2019-01-14T00:43:43.809Z,99358.00
2019-01-14T00:46:33.191Z,99360.00
2019-01-14T00:49:22.963Z,99376.00
2019-01-14T00:51:53.605Z,99381.00
2019-01-14T00:54:35.760Z,99354.00
2019-01-14T00:57:25.202Z,99404.00
2019-01-14T01:00:20.606Z,99408.00
2019-01-14T01:03:10.467Z,99426.00
2019-01-14T01:05:59.946Z,99409.00
2019-01-14T01:11:59.926Z,99429.00
2019-01-14T01:14:49.761Z,99429.00
2019-01-14T01:17:40.028Z,99425.00
2019-01-14T01:20:50.064Z,99400.00
2019-01-14T01:23:21.662Z,99450.00
2019-01-14T01:26:10.602Z,99450.00
2019-01-14T01:28:41.608Z,99454.00
2019-01-14T01:31:12.344Z,99448.00
2019-01-14T01:34:02.188Z,99436.00
2019-01-14T01:36:51.984Z,99463.00
2019-01-14T01:39:41.515Z,99472.00
2019-01-14T01:42:30.934Z,99455.00
2019-01-14T01:45:20.657Z,99486.00
2019-01-14T01:48:10.271Z,99463.00
2019-01-14T01:50:59.744Z,99504.00
2019-01-14T01:53:42.252Z,99525.00
2019-01-14T01:56:31.859Z,99527.00
2019-01-14T01:59:21.298Z,99538.00
2019-01-14T02:02:10.782Z,99533.00
2019-01-14T02:05:00.219Z,99492.00
2019-01-14T02:07:49.775Z,99545.00
2019-01-14T02:10:39.222Z,99551.00
2019-01-14T02:13:28.826Z,99551.00
2019-01-14T02:16:18.609Z,99562.00
2019-01-14T02:19:08.386Z,99589.00
2019-01-14T02:21:57.820Z,99574.00
2019-01-14T02:24:28.526Z,99591.00
2019-01-14T02:27:18.017Z,99592.00
2019-01-14T02:30:10.176Z,99592.00
2019-01-14T02:32:59.966Z,99609.00
2019-01-14T02:35:49.577Z,99618.00
2019-01-14T02:38:20.303Z,99629.00
2019-01-14T02:41:10.180Z,99631.00
2019-01-14T02:43:59.664Z,99643.00
2019-01-14T02:46:49.209Z,99643.00
2019-01-14T02:49:38.735Z,99597.00
2019-01-14T02:52:28.519Z,99607.00
2019-01-14T02:55:11.184Z,99602.00
2019-01-14T02:57:41.722Z,99643.00
2019-01-14T03:00:19.491Z,99643.00
2019-01-14T03:02:50.192Z,99666.00
2019-01-14T03:05:39.641Z,99653.00
2019-01-14T03:08:29.097Z,99656.00
2019-01-14T03:11:00.081Z,99666.00
2019-01-14T03:13:49.689Z,99630.00
2019-01-14T03:16:39.142Z,99681.00
2019-01-14T03:19:28.988Z,99679.00
2019-01-14T03:22:19.070Z,99680.00
2019-01-14T03:25:29.648Z,99683.00
2019-01-14T03:28:01.030Z,99684.00
2019-01-14T03:30:50.787Z,99666.00
2019-01-14T03:33:40.201Z,99673.00
2019-01-14T03:36:29.642Z,99692.00
2019-01-14T03:39:19.441Z,99644.00
2019-01-14T03:42:08.892Z,99696.00
2019-01-14T03:44:58.393Z,99653.00
2019-01-14T03:47:47.925Z,99671.00
2019-01-14T03:50:37.714Z,99703.00
2019-01-14T03:53:27.228Z,99707.00
2019-01-14T03:56:08.997Z,99717.00
2019-01-14T03:58:58.465Z,99678.00
2019-01-14T04:01:47.964Z,99694.00
2019-01-14T04:04:37.430Z,99735.00
2019-01-14T04:07:26.908Z,99678.00
2019-01-14T04:10:17.081Z,99718.00
2019-01-14T04:13:06.683Z,99687.00
2019-01-14T04:15:56.525Z,99739.00
2019-01-14T04:18:46.034Z,99729.00
2019-01-14T04:21:35.523Z,99732.00
2019-01-14T04:24:25.058Z,99723.00
2019-01-14T04:27:14.486Z,99688.00
2019-01-14T04:30:24.588Z,99722.00
2019-01-14T04:33:14.059Z,99705.00
2019-01-14T04:36:03.493Z,99707.00
2019-01-14T04:41:49.550Z,99710.00
2019-01-14T04:44:39.047Z,99728.00
2019-01-14T04:47:28.516Z,99724.00
2019-01-14T04:50:58.539Z,99729.00
2019-01-14T04:53:47.986Z,99762.00
2019-01-14T04:56:37.497Z,99768.00
2019-01-14T04:59:26.930Z,99767.00
2019-01-14T05:01:57.315Z,99767.00
2019-01-14T05:04:27.698Z,99766.00
2019-01-14T05:07:17.110Z,99730.00
2019-01-14T05:10:07.101Z,99776.00
2019-01-14T05:12:56.538Z,99773.00
2019-01-14T05:15:45.991Z,99781.00
2019-01-14T05:18:35.439Z,99786.00
2019-01-14T05:21:25.142Z,99787.00
2019-01-14T05:24:14.564Z,99786.00
2019-01-14T05:27:04.019Z,99792.00
2019-01-14T05:29:53.770Z,99755.00
2019-01-14T05:32:24.135Z,99796.00
2019-01-14T05:35:14.379Z,99796.00
2019-01-14T05:38:04.103Z,99803.00
2019-01-14T05:40:53.575Z,99811.00
2019-01-14T05:43:43.021Z,99806.00
2019-01-14T05:46:32.798Z,99812.00
2019-01-14T05:49:22.225Z,99820.00
2019-01-14T05:52:04.273Z,99828.00
2019-01-14T05:54:53.685Z,99827.00
2019-01-14T05:57:43.254Z,99786.00
2019-01-14T06:01:12.954Z,99836.00
2019-01-14T06:04:02.409Z,99841.00
2019-01-14T06:06:52.222Z,99846.00
2019-01-14T06:09:41.703Z,99802.00
2019-01-14T06:12:31.225Z,99854.00
2019-01-14T06:15:20.811Z,99861.00
2019-01-14T06:18:10.324Z,99860.00
2019-01-14T06:20:59.874Z,99866.00
2019-01-14T06:23:49.735Z,99829.00
2019-01-14T06:26:39.223Z,99866.00
2019-01-14T06:29:28.677Z,99874.00
2019-01-14T06:32:18.198Z,99877.00
2019-01-14T06:35:07.758Z,99849.00
2019-01-14T06:37:38.160Z,99884.00
2019-01-14T06:40:27.631Z,99890.00
2019-01-14T06:43:17.744Z,99890.00
2019-01-14T06:46:07.214Z,99864.00
2019-01-14T06:48:37.534Z,99899.00
2019-01-14T06:51:08.907Z,99913.00
2019-01-14T06:53:39.724Z,99906.00
2019-01-14T06:56:10.326Z,99918.00
2019-01-14T06:58:40.653Z,99911.00
2019-01-14T07:01:10.953Z,99934.00
2019-01-14T07:04:00.684Z,99956.00
2019-01-14T07:06:31.209Z,99944.00
2019-01-14T07:09:02.029Z,99959.00
2019-01-14T07:11:32.595Z,99968.00
2019-01-14T07:14:03.725Z,99968.00
2019-01-14T07:16:34.150Z,99971.00
2019-01-14T07:19:04.913Z,99968.00
2019-01-14T07:21:54.360Z,99928.00
2019-01-14T07:24:44.275Z,99983.00
2019-01-14T07:27:34.306Z,99946.00
2019-01-14T07:30:25.366Z,99986.00
2019-01-14T07:32:55.969Z,99989.00
2019-01-14T07:35:45.678Z,100003.00
2019-01-14T07:38:16.275Z,99990.00
2019-01-14T07:41:05.909Z,99996.00
2019-01-14T07:43:55.656Z,100014.00
2019-01-14T07:46:45.390Z,100028.00
2019-01-14T07:49:35.719Z,99959.00
2019-01-14T07:52:19.027Z,100021.00
2019-01-14T07:55:08.482Z,100028.00
2019-01-14T07:57:57.953Z,100021.00
2019-01-14T08:00:28.947Z,100023.00
2019-01-14T08:03:18.467Z,100002.00
2019-01-14T08:06:08.219Z,100045.00
2019-01-14T08:08:58.074Z,100000.00
2019-01-14T08:11:47.511Z,100046.00
2019-01-14T08:14:37.321Z,100059.00
2019-01-14T08:17:26.983Z,100030.00
2019-01-14T08:20:16.566Z,100062.00
2019-01-14T08:23:06.273Z,100063.00
2019-01-14T08:25:55.744Z,100075.00
2019-01-14T08:28:45.398Z,100056.00
2019-01-14T08:31:34.873Z,100093.00
2019-01-14T08:34:24.314Z,100100.00
2019-01-14T08:37:13.792Z,100093.00
2019-01-14T08:40:03.296Z,100113.00
2019-01-14T08:42:52.732Z,100103.00
2019-01-14T08:45:42.541Z,100093.00
2019-01-14T08:48:32.056Z,100117.00
2019-01-14T08:51:21.800Z,100069.00
2019-01-14T08:54:05.162Z,100109.00
2019-01-14T08:56:54.648Z,100073.00
2019-01-14T08:59:44.208Z,100068.00
2019-01-14T09:02:33.642Z,100073.00
2019-01-14T09:05:23.126Z,100124.00
2019-01-14T09:08:12.874Z,100082.00
2019-01-14T09:11:02.615Z,100095.00
2019-01-14T09:13:52.304Z,100077.00
2019-01-14T09:16:41.766Z,100080.00
2019-01-14T09:19:31.715Z,100132.00
2019-01-14T09:22:21.209Z,100143.00
2019-01-14T09:25:10.651Z,100145.00
2019-01-14T09:28:00.153Z,100147.00
2019-01-14T09:30:49.953Z,100145.00
2019-01-14T09:33:20.322Z,100167.00
2019-01-14T09:36:09.819Z,100151.00
2019-01-14T09:38:59.501Z,100151.00
2019-01-14T09:41:48.988Z,100135.00
2019-01-14T09:44:38.412Z,100169.00
2019-01-14T09:47:27.871Z,100177.00
2019-01-14T09:49:58.872Z,100178.00
2019-01-14T09:52:48.301Z,100173.00
2019-01-14T09:55:31.126Z,100120.00
2019-01-14T09:58:20.793Z,100181.00
2019-01-14T10:01:10.527Z,100182.00
2019-01-14T10:03:59.981Z,100186.00
2019-01-14T10:06:49.466Z,100195.00
2019-01-14T10:09:38.936Z,100183.00
2019-01-14T10:12:28.493Z,100199.00
2019-01-14T10:15:23.274Z,100194.00
2019-01-14T10:18:12.727Z,100166.00
2019-01-14T10:21:02.247Z,100209.00
2019-01-14T10:23:52.269Z,100210.00
2019-01-14T10:26:41.939Z,100210.00
2019-01-14T10:29:31.821Z,100209.00
2019-01-14T10:32:21.255Z,100175.00
2019-01-14T10:35:10.951Z,100215.00
2019-01-14T10:38:00.444Z,100221.00
2019-01-14T10:40:49.917Z,100221.00
2019-01-14T10:43:39.594Z,100218.00
2019-01-14T10:46:29.066Z,100205.00
2019-01-14T10:49:18.707Z,100206.00
2019-01-14T10:52:08.222Z,100207.00
2019-01-14T10:54:50.310Z,100201.00
2019-01-14T10:57:39.970Z,100198.00
2019-01-14T11:00:29.975Z,100205.00
2019-01-14T11:03:19.396Z,100179.00
2019-01-14T11:06:08.883Z,100178.00
2019-01-14T11:09:05.638Z,100210.00
2019-01-14T11:11:49.544Z,100180.00
2019-01-14T11:14:38.933Z,100226.00
2019-01-14T11:17:28.416Z,100208.00
2019-01-14T11:19:58.791Z,100230.00
2019-01-14T11:22:48.573Z,100265.00
2019-01-14T11:25:38.222Z,100305.00
2019-01-14T11:28:27.710Z,100293.00
2019-01-14T11:31:17.174Z,100292.00
2019-01-14T11:34:06.816Z,100289.00
2019-01-14T11:36:56.317Z,100258.00
2019-01-14T11:39:26.660Z,100275.00
2019-01-14T11:42:17.493Z,100292.00
2019-01-14T11:45:09.479Z,100293.00
2019-01-14T11:47:58.996Z,100289.00
2019-01-14T11:50:48.490Z,100285.00
2019-01-14T11:53:30.191Z,100229.00
2019-01-14T11:56:19.590Z,100280.00
2019-01-14T11:59:09.065Z,100275.00
2019-01-14T12:01:58.515Z,100272.00
2019-01-14T12:04:48.320Z,100238.00
2019-01-14T12:07:38.099Z,100290.00
2019-01-14T12:10:27.868Z,100281.00
2019-01-14T12:13:17.331Z,100230.00
2019-01-14T12:16:06.918Z,100246.00
2019-01-14T12:18:56.738Z,100252.00
2019-01-14T12:21:46.203Z,100285.00
2019-01-14T12:24:35.637Z,100245.00
2019-01-14T12:27:25.102Z,100262.00
2019-01-14T12:30:34.747Z,100259.00
2019-01-14T12:33:24.537Z,100299.00
2019-01-14T12:36:14.418Z,100306.00
2019-01-14T12:39:24.462Z,100321.00
2019-01-14T12:42:13.886Z,100308.00
2019-01-14T12:45:03.721Z,100325.00
2019-01-14T12:47:53.163Z,100324.00
2019-01-14T12:50:42.672Z,100281.00
2019-01-14T12:53:23.506Z,100318.00
2019-01-14T12:56:05.632Z,100326.00
2019-01-14T12:58:55.142Z,100273.00
2019-01-14T13:01:44.830Z,100296.00
2019-01-14T13:04:34.266Z,100342.00
2019-01-14T13:07:04.717Z,100339.00
2019-01-14T13:09:35.096Z,100363.00
2019-01-14T13:12:24.509Z,100344.00
2019-01-14T13:15:16.052Z,100308.00
2019-01-14T13:17:46.448Z,100355.00
2019-01-14T13:20:36.202Z,100351.00
2019-01-14T13:23:25.715Z,100309.00
2019-01-14T13:26:15.260Z,100356.00
2019-01-14T13:29:04.738Z,100317.00
2019-01-14T13:31:54.227Z,100367.00
2019-01-14T13:34:44.912Z,100368.00
2019-01-14T13:37:34.891Z,100373.00
2019-01-14T13:40:24.337Z,100377.00
2019-01-14T13:43:13.822Z,100381.00
2019-01-14T13:46:03.294Z,100392.00
2019-01-14T13:49:00.302Z,100397.00
2019-01-14T13:51:49.804Z,100350.00
2019-01-14T13:54:39.451Z,100385.00
2019-01-14T13:57:22.451Z,100351.00
2019-01-14T14:00:31.099Z,100397.00
2019-01-14T14:03:20.586Z,100369.00
2019-01-14T14:06:10.040Z,100406.00
2019-01-14T14:08:59.697Z,100367.00
2019-01-14T14:11:49.206Z,100422.00
2019-01-14T14:14:38.680Z,100434.00
2019-01-14T14:17:28.153Z,100406.00
2019-01-14T14:20:17.745Z,100418.00
2019-01-14T14:23:07.389Z,100448.00
2019-01-14T14:25:56.873Z,100404.00
2019-01-14T14:28:44.637Z,100419.00
2019-01-14T14:31:14.971Z,100464.00
2019-01-14T14:34:03.951Z,100466.00
2019-01-14T14:36:35.428Z,100462.00
2019-01-14T14:39:26.631Z,100466.00
2019-01-14T14:42:16.666Z,100434.00
2019-01-14T14:44:47.290Z,100468.00
2019-01-14T14:47:37.767Z,100465.00
2019-01-14T14:50:11.653Z,100497.00
2019-01-14T14:52:42.067Z,100498.00
2019-01-14T14:55:31.570Z,100503.00
2019-01-14T14:58:21.029Z,100519.00
2019-01-14T15:00:51.397Z,100516.00
2019-01-14T15:03:21.861Z,100514.00
2019-01-14T15:06:11.394Z,100490.00
2019-01-14T15:09:01.139Z,100489.00
2019-01-14T15:11:50.665Z,100525.00
2019-01-14T15:14:40.228Z,100504.00
2019-01-14T15:17:30.083Z,100536.00
2019-01-14T15:20:40.422Z,100533.00
2019-01-14T15:23:29.939Z,100549.00
2019-01-14T15:26:19.409Z,100542.00
2019-01-14T15:29:08.931Z,100500.00
2019-01-14T15:31:58.699Z,100544.00
2019-01-14T15:34:49.449Z,100557.00
2019-01-14T15:37:39.381Z,100548.00
2019-01-14T15:40:28.834Z,100507.00
2019-01-14T15:43:18.284Z,100581.00
2019-01-14T15:46:08.009Z,100563.00
2019-01-14T15:48:57.447Z,100575.00
2019-01-14T15:51:47.206Z,100601.00
2019-01-14T15:54:28.979Z,100590.00
2019-01-14T15:57:18.706Z,100593.00
2019-01-14T16:00:11.042Z,100542.00
2019-01-14T16:03:01.251Z,100597.00
2019-01-14T16:05:50.697Z,100594.00
2019-01-14T16:08:40.266Z,100607.00
2019-01-14T16:11:10.670Z,100599.00
2019-01-14T16:14:00.155Z,100595.00
2019-01-14T16:16:49.639Z,100606.00
2019-01-14T16:19:39.436Z,100600.00
2019-01-14T16:22:28.936Z,100594.00
2019-01-14T16:25:18.652Z,100604.00
2019-01-14T16:28:08.351Z,100562.00
2019-01-14T16:30:42.989Z,100612.00
2019-01-14T16:33:32.733Z,100612.00
2019-01-14T16:36:03.380Z,100609.00
2019-01-14T16:38:52.813Z,100621.00
2019-01-14T16:41:23.226Z,100615.00
2019-01-14T16:44:12.972Z,100600.00
2019-01-14T16:47:02.486Z,100618.00
2019-01-14T16:49:51.959Z,100627.00
2019-01-14T16:52:41.781Z,100623.00
2019-01-14T16:55:42.801Z,100595.00
2019-01-14T16:58:13.185Z,100630.00
2019-01-14T17:01:02.708Z,100646.00
2019-01-14T17:03:52.191Z,100648.00
2019-01-14T17:06:41.125Z,100654.00
2019-01-14T17:09:30.948Z,100665.00
2019-01-14T17:12:20.406Z,100656.00
2019-01-14T17:15:10.244Z,100651.00
2019-01-14T17:17:59.670Z,100607.00
2019-01-14T17:20:49.235Z,100648.00
2019-01-14T17:23:38.979Z,100655.00
2019-01-14T17:26:28.448Z,100648.00
2019-01-14T17:29:17.869Z,100664.00
2019-01-14T17:32:07.499Z,100664.00
2019-01-14T17:34:57.421Z,100675.00
2019-01-14T17:37:27.899Z,100684.00
2019-01-14T17:40:18.793Z,100681.00
2019-01-14T17:43:08.630Z,100687.00
2019-01-14T17:45:58.533Z,100642.00
2019-01-14T17:48:48.065Z,100694.00
2019-01-14T17:54:22.890Z,100668.00
2019-01-14T18:00:02.480Z,100705.00
2019-01-14T18:02:33.437Z,100713.00
2019-01-14T18:05:23.007Z,100700.00
2019-01-14T18:08:12.645Z,100711.00
2019-01-14T18:11:02.224Z,100671.00
2019-01-14T18:13:32.686Z,100717.00
2019-01-14T18:16:03.504Z,100721.00
2019-01-14T18:18:53.015Z,100728.00
2019-01-14T18:21:23.519Z,100726.00
2019-01-14T18:23:54.480Z,100722.00
2019-01-14T18:26:44.079Z,100733.00
2019-01-14T18:29:33.846Z,100693.00
2019-01-14T18:32:23.571Z,100734.00
2019-01-14T18:35:13.396Z,100734.00
2019-01-14T18:38:02.896Z,100755.00
2019-01-14T18:40:52.435Z,100750.00
2019-01-14T18:43:41.906Z,100721.00
2019-01-14T18:46:31.359Z,100770.00
2019-01-14T18:49:20.811Z,100723.00
2019-01-14T18:52:10.304Z,100775.00
2019-01-14T18:54:52.347Z,100726.00
2019-01-14T18:57:41.963Z,100724.00
2019-01-14T19:00:31.542Z,100767.00
2019-01-14T19:03:21.153Z,100767.00
2019-01-14T19:06:10.618Z,100772.00
2019-01-14T19:08:41.177Z,100780.00
2019-01-14T19:11:30.684Z,100731.00
2019-01-14T19:14:20.264Z,100736.00
2019-01-14T19:17:09.998Z,100783.00
2019-01-14T19:19:59.469Z,100768.00
2019-01-14T19:22:49.347Z,100754.00
2019-01-14T19:25:39.087Z,100791.00
2019-01-14T19:28:28.552Z,100781.00
2019-01-14T19:31:17.988Z,100792.00
2019-01-14T19:34:07.530Z,100797.00
2019-01-14T19:36:56.957Z,100796.00
2019-01-14T19:39:46.423Z,100792.00
2019-01-14T19:42:35.877Z,100801.00
2019-01-14T19:45:07.616Z,100804.00
2019-01-14T19:47:57.149Z,100802.00
2019-01-14T19:50:46.599Z,100761.00
2019-01-14T19:53:36.064Z,100815.00
2019-01-14T19:56:18.210Z,100807.00
2019-01-14T19:59:07.708Z,100808.00
2019-01-14T20:01:57.169Z,100822.00
2019-01-14T20:04:46.633Z,100823.00
2019-01-14T20:07:36.178Z,100822.00
2019-01-14T20:10:25.667Z,100835.00
2019-01-14T20:12:57.014Z,100837.00
2019-01-14T20:15:46.460Z,100846.00
2019-01-14T20:18:36.164Z,100859.00
2019-01-14T20:21:07.084Z,100862.00
2019-01-14T20:23:38.315Z,100859.00
2019-01-14T20:26:28.289Z,100862.00
2019-01-14T20:29:17.766Z,100870.00
2019-01-14T20:31:48.089Z,100861.00
2019-01-14T20:34:37.595Z,100865.00
2019-01-14T20:37:27.021Z,100817.00
2019-01-14T20:39:57.387Z,100870.00
2019-01-14T20:42:46.932Z,100868.00
2019-01-14T20:45:36.406Z,100816.00
2019-01-14T20:48:25.850Z,100875.00
2019-01-14T20:51:15.765Z,100866.00
2019-01-14T20:54:05.341Z,100834.00
2019-01-14T20:56:47.676Z,100871.00
2019-01-14T20:59:38.766Z,100868.00
2019-01-14T21:02:29.355Z,100878.00
2019-01-14T21:05:19.195Z,100874.00
2019-01-14T21:07:49.719Z,100875.00
2019-01-14T21:10:39.878Z,100829.00
2019-01-14T21:13:30.413Z,100825.00
2019-01-14T21:16:20.016Z,100860.00
2019-01-14T21:19:09.555Z,100859.00
2019-01-14T21:21:59.146Z,100809.00
2019-01-14T21:24:48.612Z,100850.00
2019-01-14T21:27:38.198Z,100814.00
2019-01-14T21:30:28.074Z,100868.00
2019-01-14T21:33:17.612Z,100874.00
2019-01-14T21:36:07.828Z,100811.00
2019-01-14T21:38:57.676Z,100835.00
2019-01-14T21:41:47.134Z,100880.00
2019-01-14T21:44:36.612Z,100871.00
2019-01-14T21:47:32.507Z,100865.00
2019-01-14T21:50:18.457Z,100827.00
2019-01-14T21:53:08.198Z,100880.00
2019-01-14T21:55:57.746Z,100838.00
2019-01-14T21:58:28.522Z,100881.00
2019-01-14T22:01:18.038Z,100854.00
2019-01-14T22:03:48.517Z,100896.00
2019-01-14T22:06:18.916Z,100898.00
2019-01-14T22:09:08.495Z,100921.00
2019-01-14T22:11:38.989Z,100906.00
2019-01-14T22:14:10.791Z,100912.00
2019-01-14T22:16:41.151Z,100924.00
2019-01-14T22:19:11.979Z,100921.00
2019-01-14T22:21:42.372Z,100922.00
2019-01-14T22:24:12.783Z,100924.00
2019-01-14T22:26:43.302Z,100920.00
2019-01-14T22:29:33.161Z,100896.00
2019-01-14T22:32:22.655Z,100882.00
2019-01-14T22:35:12.443Z,100887.00
2019-01-14T22:38:02.329Z,100925.00
2019-01-14T22:40:51.848Z,100940.00
2019-01-14T22:43:41.294Z,100922.00
2019-01-14T22:46:31.055Z,100919.00
2019-01-14T22:49:20.473Z,100889.00
2019-01-14T22:51:50.946Z,100920.00
2019-01-14T22:54:40.658Z,100916.00
2019-01-14T22:57:23.203Z,100870.00
2019-01-14T22:59:54.119Z,100919.00
2019-01-14T23:02:43.856Z,100914.00
2019-01-14T23:05:33.400Z,100912.00
2019-01-14T23:08:37.077Z,100923.00
2019-01-14T23:11:14.097Z,100855.00
2019-01-14T23:14:03.741Z,100903.00
2019-01-14T23:16:53.166Z,100906.00
2019-01-14T23:19:43.045Z,100889.00
2019-01-14T23:22:32.494Z,100912.00
2019-01-14T23:25:21.968Z,100883.00
2019-01-14T23:28:11.414Z,100921.00
2019-01-14T23:30:41.784Z,100912.00
2019-01-14T23:33:31.257Z,100915.00
2019-01-14T23:36:21.032Z,100872.00
2019-01-14T23:39:10.622Z,100928.00
2019-01-14T23:42:00.731Z,100887.00
2019-01-14T23:44:51.505Z,100885.00
2019-01-14T23:47:40.985Z,100931.00
2019-01-14T23:50:30.999Z,100930.00
2019-01-14T23:53:20.481Z,100931.00
2019-01-14T23:56:10.306Z,100938.00
2019-01-14T23:58:59.830Z,100900.00
